Time;durP1;ratioP1;P1;durP2;ratioP2;P2;SDS_P1;SDS_P2;PMS_P1;PMS_P2;Temp;Humidity;BMP_temperature;BMP_pressure;BME280_temperature;BME280_humidity;BME280_pressure;Samples;Min_cycle;Max_cycle;Signal;HPM_P1;HPM_P2
2023/12/09 00:03:50;;;;;;;12.18;2.22;;;;;;;9.97;94.44;100214.66;8362496;28;20052;-56
2023/12/09 00:07:50;;;;;;;5.38;1.48;;;;;;;10.10;94.08;100224.31;8376086;28;20029;-57
2023/12/09 00:11:51;;;;;;;5.70;1.65;;;;;;;10.18;93.07;100228.00;8375224;28;20032;-55
2023/12/09 00:15:51;;;;;;;7.18;2.78;;;;;;;10.18;93.33;100228.00;8375573;28;20041;-57
2023/12/09 00:19:52;;;;;;;10.73;2.33;;;;;;;10.20;92.63;100222.44;8346641;28;20536;-57
2023/12/09 00:23:52;;;;;;;5.47;1.83;;;;;;;10.16;93.04;100223.75;8343926;28;20047;-57
2023/12/09 00:27:53;;;;;;;11.05;2.72;;;;;;;10.20;93.18;100220.63;8367209;28;20099;-56
2023/12/09 00:31:53;;;;;;;11.15;3.05;;;;;;;10.15;93.42;100228.28;8373615;28;20048;-56
2023/12/09 00:35:54;;;;;;;7.70;2.20;;;;;;;10.15;93.46;100216.66;8371529;28;20093;-58
2023/12/09 00:39:54;;;;;;;10.23;2.20;;;;;;;10.16;93.58;100226.44;8370861;28;20035;-57
2023/12/09 00:43:54;;;;;;;10.88;2.50;;;;;;;10.17;93.38;100229.00;8370860;28;20077;-55
2023/12/09 00:47:55;;;;;;;10.52;2.38;;;;;;;10.21;93.21;100230.41;8353657;28;20033;-51
2023/12/09 00:51:55;;;;;;;10.65;2.40;;;;;;;10.31;92.94;100238.50;8318758;28;20044;-55
2023/12/09 00:55:56;;;;;;;9.52;2.35;;;;;;;10.41;91.98;100240.19;8298082;28;20094;-55
2023/12/09 00:59:56;;;;;;;10.70;2.42;;;;;;;10.45;92.43;100228.09;8299889;28;20388;-56
2023/12/09 01:03:57;;;;;;;7.30;1.83;;;;;;;10.82;90.13;100218.13;8275006;28;20197;-51
2023/12/09 01:07:58;;;;;;;11.90;2.15;;;;;;;10.68;89.89;100225.88;8268417;28;20286;-53
2023/12/09 01:11:58;;;;;;;8.20;2.35;;;;;;;10.65;90.01;100231.56;8303217;28;20679;-55
2023/12/09 01:15:58;;;;;;;10.55;2.28;;;;;;;10.75;89.60;100217.03;8281217;28;20248;-56
2023/12/09 01:19:59;;;;;;;13.48;2.45;;;;;;;10.82;89.47;100212.72;8275574;28;20245;-56
2023/12/09 01:24:00;;;;;;;13.43;3.50;;;;;;;10.70;89.86;100219.31;8279615;28;20317;-57
2023/12/09 01:28:00;;;;;;;11.32;3.08;;;;;;;10.64;89.46;100214.50;8272442;28;20040;-56
2023/12/09 01:32:01;;;;;;;8.00;2.70;;;;;;;10.52;89.74;100209.44;8272806;28;20052;-55
2023/12/09 01:36:01;;;;;;;11.63;2.53;;;;;;;10.55;89.50;100223.50;8272862;28;20197;-57
2023/12/09 01:40:02;;;;;;;7.72;2.03;;;;;;;10.31;90.18;100206.91;8271134;28;20262;-56
2023/12/09 01:44:03;;;;;;;10.77;2.33;;;;;;;10.22;90.17;100218.63;8303597;28;20060;-57
2023/12/09 01:48:04;;;;;;;6.20;2.10;;;;;;;10.06;90.75;100212.91;8315760;28;20041;-54
2023/12/09 01:52:05;;;;;;;14.20;3.10;;;;;;;10.04;90.94;100212.22;8354867;28;20036;-54
2023/12/09 01:56:09;;;;;;;11.88;2.28;;;;;;;10.14;90.83;100210.38;8373246;28;20510;-53
2023/12/09 02:00:10;;;;;;;10.23;2.40;;;;;;;10.15;90.57;100201.28;8372267;28;20033;-54
2023/12/09 02:04:12;;;;;;;7.22;2.85;;;;;;;10.10;90.44;100202.72;8370323;28;20048;-55
2023/12/09 02:08:14;;;;;;;10.07;2.72;;;;;;;9.86;91.37;100222.88;8372531;28;20093;-55
2023/12/09 02:12:38;;;;;;;13.15;2.63;;;;;;;9.74;92.07;100202.47;8371284;28;20069;-52
2023/12/09 02:20:53;;;;;;;9.15;2.42;;;;;;;9.81;91.76;100194.63;8334815;27;20470;-53
2023/12/09 02:24:54;;;;;;;9.65;2.20;;;;;;;9.74;91.71;100186.28;8331240;28;20042;-56
2023/12/09 02:29:03;;;;;;;7.38;2.30;;;;;;;9.69;92.44;100182.28;8336011;28;20384;-57
2023/12/09 02:33:07;;;;;;;11.50;2.78;;;;;;;9.66;92.77;100187.97;8333285;28;20037;-57
2023/12/09 02:37:09;;;;;;;5.67;2.53;;;;;;;9.80;92.38;100192.94;8336928;28;20044;-57
2023/12/09 02:41:11;;;;;;;10.05;2.65;;;;;;;9.62;92.67;100182.00;8331240;28;20292;-57
2023/12/09 02:45:12;;;;;;;11.65;2.65;;;;;;;9.52;93.69;100180.31;8290808;28;20045;-56
2023/12/09 02:49:12;;;;;;;10.35;2.80;;;;;;;9.65;93.30;100191.66;8353502;28;20037;-57
2023/12/09 02:53:14;;;;;;;10.15;2.42;;;;;;;9.59;92.73;100181.44;8255510;28;20820;-55
2023/12/09 02:57:14;;;;;;;14.55;3.25;;;;;;;9.38;92.75;100178.03;8228026;28;20304;-55
2023/12/09 03:01:14;;;;;;;14.05;4.15;;;;;;;9.23;93.11;100184.81;8233808;28;20042;-57
2023/12/09 03:05:15;;;;;;;9.80;2.88;;;;;;;9.17;93.66;100169.19;8256566;28;20420;-55
2023/12/09 03:09:15;;;;;;;12.85;2.83;;;;;;;9.03;93.89;100158.84;8233586;28;20419;-55
2023/12/09 03:13:16;;;;;;;7.82;2.55;;;;;;;8.73;94.50;100153.50;8234831;28;20038;-54
2023/12/09 03:17:16;;;;;;;12.27;2.80;;;;;;;8.62;95.66;100145.53;8222146;28;20123;-54
2023/12/09 03:21:17;;;;;;;7.25;2.70;;;;;;;8.40;96.73;100134.97;8262001;28;20172;-56
2023/12/09 03:25:17;;;;;;;12.38;2.70;;;;;;;8.24;97.07;100142.72;8272174;28;20041;-56
2023/12/09 03:29:18;;;;;;;8.23;2.15;;;;;;;8.20;97.73;100133.16;8266120;28;20381;-55
2023/12/09 03:33:19;;;;;;;9.80;2.17;;;;;;;8.04;98.16;100134.50;8261184;28;20050;-54
2023/12/09 03:37:19;;;;;;;7.90;2.80;;;;;;;7.92;98.58;100151.72;8312321;28;20041;-53
2023/12/09 03:41:20;;;;;;;18.00;3.35;;;;;;;7.79;99.07;100153.78;8309567;28;20056;-54
2023/12/09 03:45:20;;;;;;;14.48;2.97;;;;;;;7.68;99.13;100132.31;8305758;28;20038;-55
2023/12/09 03:49:21;;;;;;;13.48;2.88;;;;;;;7.47;99.09;100144.91;8303397;28;20044;-54
2023/12/09 03:53:22;;;;;;;11.48;3.10;;;;;;;7.29;100.00;100165.25;8311884;28;20040;-54
2023/12/09 03:57:23;;;;;;;8.35;2.60;;;;;;;7.06;100.00;100150.22;8307993;28;20037;-54
2023/12/09 04:01:24;;;;;;;11.20;2.85;;;;;;;7.03;100.00;100139.72;8303481;28;20103;-54
2023/12/09 04:05:25;;;;;;;9.88;2.70;;;;;;;6.96;100.00;100133.16;8309612;28;20045;-54
2023/12/09 04:09:25;;;;;;;13.07;2.67;;;;;;;6.94;100.00;100127.06;8310154;28;20169;-54
2023/12/09 04:13:27;;;;;;;10.65;3.30;;;;;;;6.83;100.00;100132.44;8310969;28;20118;-54
2023/12/09 04:17:27;;;;;;;13.80;3.47;;;;;;;6.69;100.00;100135.44;8307423;28;20045;-54
2023/12/09 04:21:27;;;;;;;11.23;3.42;;;;;;;6.76;100.00;100136.63;8246898;28;20046;-55
2023/12/09 04:25:28;;;;;;;13.18;3.90;;;;;;;6.67;100.00;100132.00;8254569;28;20045;-55
2023/12/09 04:29:29;;;;;;;19.88;4.45;;;;;;;6.79;100.00;100124.75;8254487;28;20292;-56
2023/12/09 04:33:29;;;;;;;10.52;3.63;;;;;;;6.90;100.00;100116.69;8255861;28;20110;-56
2023/12/09 04:37:30;;;;;;;15.02;3.10;;;;;;;6.97;100.00;100096.38;8235200;28;20275;-51
2023/12/09 04:41:30;;;;;;;10.98;3.10;;;;;;;7.01;100.00;100108.56;8208838;28;20065;-53
2023/12/09 04:45:31;;;;;;;13.18;3.47;;;;;;;7.18;100.00;100106.19;8231622;28;20231;-54
2023/12/09 04:49:32;;;;;;;12.20;2.70;;;;;;;7.23;100.00;100093.19;8278317;28;20496;-57
2023/12/09 04:53:32;;;;;;;9.77;2.47;;;;;;;7.25;100.00;100096.63;8307875;28;20045;-58
2023/12/09 04:57:33;;;;;;;8.60;3.53;;;;;;;7.25;100.00;100080.50;8270110;28;20259;-55
2023/12/09 05:01:33;;;;;;;10.85;3.22;;;;;;;7.23;100.00;100078.91;8254705;28;20066;-56
2023/12/09 05:05:33;;;;;;;10.55;4.15;;;;;;;7.14;100.00;100075.16;8254666;28;20124;-57
2023/12/09 05:09:34;;;;;;;16.17;3.88;;;;;;;7.19;100.00;100066.69;8252803;28;20463;-56
2023/12/09 05:13:35;;;;;;;12.32;3.35;;;;;;;7.06;100.00;100052.59;8298502;28;20487;-58
2023/12/09 05:17:36;;;;;;;8.65;2.92;;;;;;;7.01;100.00;100046.75;8252391;28;20041;-55
2023/12/09 05:21:36;;;;;;;11.90;4.10;;;;;;;7.00;100.00;100048.63;8251112;28;20220;-54
2023/12/09 05:25:37;;;;;;;9.27;4.43;;;;;;;6.70;100.00;100051.19;8252823;28;20217;-56
2023/12/09 05:29:38;;;;;;;8.95;3.90;;;;;;;6.43;100.00;100056.13;8248834;28;20045;-53
2023/12/09 05:33:40;;;;;;;8.90;3.80;;;;;;;6.30;100.00;100036.66;8250512;28;20050;-54
2023/12/09 05:37:40;;;;;;;21.90;4.28;;;;;;;6.28;100.00;100038.59;8252684;28;20042;-56
2023/12/09 05:41:42;;;;;;;13.13;4.53;;;;;;;6.23;100.00;100040.81;8253665;28;20051;-55
2023/12/09 05:45:42;;;;;;;15.50;4.22;;;;;;;6.10;100.00;100031.22;8301993;28;20053;-55
2023/12/09 05:49:42;;;;;;;13.50;4.70;;;;;;;6.31;100.00;100027.63;8279277;28;20033;-57
2023/12/09 05:53:43;;;;;;;17.85;4.82;;;;;;;6.42;100.00;100032.97;8250462;28;20057;-56
2023/12/09 05:57:44;;;;;;;10.52;4.55;;;;;;;6.41;100.00;100031.28;8252179;28;20696;-56
2023/12/09 06:01:44;;;;;;;10.48;4.50;;;;;;;6.44;100.00;100030.16;8253647;28;20117;-56
2023/12/09 06:05:44;;;;;;;14.90;3.83;;;;;;;6.45;100.00;100013.91;8251740;28;20057;-56
2023/12/09 06:09:45;;;;;;;13.10;4.15;;;;;;;6.54;100.00;100023.91;8251259;28;20161;-56
2023/12/09 06:13:46;;;;;;;12.80;4.00;;;;;;;6.54;100.00;100023.91;8246417;28;20231;-56
2023/12/09 06:17:46;;;;;;;12.27;3.55;;;;;;;6.66;100.00;100019.34;8279396;28;20088;-55
2023/12/09 06:21:46;;;;;;;14.65;4.10;;;;;;;6.59;100.00;100015.47;8304266;28;20144;-55
2023/12/09 06:25:48;;;;;;;9.25;3.55;;;;;;;6.61;100.00;100019.72;8306615;28;20396;-55
2023/12/09 06:29:48;;;;;;;12.45;3.85;;;;;;;6.47;100.00;100006.59;8307729;28;20087;-55
2023/12/09 06:33:48;;;;;;;11.85;3.15;;;;;;;6.50;100.00;100017.09;8297186;28;20057;-55
2023/12/09 06:37:49;;;;;;;10.95;2.85;;;;;;;6.73;100.00;100007.94;8305254;28;20471;-55
2023/12/09 06:41:50;;;;;;;8.75;2.90;;;;;;;6.81;100.00;99996.56;8306277;28;20045;-56
2023/12/09 06:45:50;;;;;;;10.48;3.65;;;;;;;6.81;100.00;99989.38;8297568;28;20058;-56
2023/12/09 06:49:51;;;;;;;10.10;3.05;;;;;;;6.81;100.00;99983.13;8294109;28;20124;-53
2023/12/09 06:53:51;;;;;;;10.45;3.20;;;;;;;6.86;100.00;99978.22;8276526;28;20099;-54
2023/12/09 06:57:52;;;;;;;8.15;3.15;;;;;;;7.02;100.00;99970.56;8249011;28;20038;-53
2023/12/09 07:01:56;;;;;;;14.35;3.53;;;;;;;6.95;100.00;99975.59;8249924;28;20367;-54
2023/12/09 07:05:57;;;;;;;19.67;4.97;;;;;;;6.95;100.00;99972.91;8248330;28;20125;-54
2023/12/09 07:09:58;;;;;;;8.73;3.13;;;;;;;7.01;100.00;99966.13;8265670;28;20257;-54
2023/12/09 07:13:58;;;;;;;10.48;3.08;;;;;;;7.05;100.00;99963.06;8254158;28;20049;-55
2023/12/09 07:17:59;;;;;;;7.60;2.80;;;;;;;7.11;100.00;99950.94;8253860;28;20057;-55
2023/12/09 07:21:59;;;;;;;12.60;3.65;;;;;;;7.19;100.00;99945.75;8277054;28;20581;-56
2023/12/09 07:26:00;;;;;;;10.18;3.10;;;;;;;7.29;100.00;99931.38;8310155;28;20041;-57
2023/12/09 07:30:01;;;;;;;12.88;3.63;;;;;;;7.44;100.00;99916.56;8306455;28;20045;-56
2023/12/09 07:34:01;;;;;;;10.95;3.08;;;;;;;7.73;100.00;99914.84;8299229;28;20514;-55
2023/12/09 07:38:03;;;;;;;10.20;3.88;;;;;;;7.90;100.00;99916.84;8312361;28;20049;-57
2023/12/09 07:42:03;;;;;;;11.23;2.78;;;;;;;8.08;100.00;99906.25;8307764;28;20459;-56
2023/12/09 07:46:04;;;;;;;29.13;3.17;;;;;;;8.08;99.76;99890.97;8311865;28;20030;-57
2023/12/09 07:50:05;;;;;;;9.75;2.47;;;;;;;8.25;99.77;99899.38;8306769;28;20070;-57
2023/12/09 07:54:05;;;;;;;11.63;2.42;;;;;;;8.47;97.98;99880.22;8308839;28;20399;-57
2023/12/09 07:58:05;;;;;;;15.07;2.70;;;;;;;8.58;97.66;99866.63;8311721;28;20052;-57
2023/12/09 08:02:06;;;;;;;16.17;3.00;;;;;;;8.75;97.43;99838.94;8306955;28;20037;-57
2023/12/09 08:06:07;;;;;;;16.13;5.80;;;;;;;8.86;96.87;99822.59;8308666;28;20516;-57
2023/12/09 08:10:07;;;;;;;11.98;2.67;;;;;;;8.90;95.89;99830.22;8311403;28;20075;-57
2023/12/09 08:14:08;;;;;;;15.63;4.07;;;;;;;8.90;96.15;99848.25;8301987;28;20109;-55
2023/12/09 08:18:08;;;;;;;13.70;4.53;;;;;;;8.88;95.79;99831.38;8350203;28;20055;-55
2023/12/09 08:22:08;;;;;;;13.40;5.57;;;;;;;8.75;95.80;99817.38;8369674;28;20052;-54
2023/12/09 08:26:16;;;;;;;17.80;6.85;;;;;;;8.52;97.16;99826.78;8372865;28;20045;-55
2023/12/09 08:30:17;;;;;;;16.05;4.88;;;;;;;8.44;98.33;99802.41;8367378;28;20110;-55
2023/12/09 08:34:18;;;;;;;11.93;5.70;;;;;;;8.37;99.09;99790.53;8375977;28;20097;-55
2023/12/09 08:38:18;;;;;;;9.15;5.13;;;;;;;8.45;99.33;99809.50;8369952;28;20049;-56
2023/12/09 08:42:19;;;;;;;15.85;4.68;;;;;;;8.48;99.42;99817.31;8372989;28;20090;-56
2023/12/09 08:46:19;;;;;;;10.77;4.28;;;;;;;8.53;99.51;99809.63;8370405;28;20538;-57
2023/12/09 08:50:20;;;;;;;9.57;3.40;;;;;;;8.65;99.98;99800.38;8371876;28;20052;-57
2023/12/09 08:54:20;;;;;;;13.07;4.38;;;;;;;8.79;99.82;99797.22;8371100;28;20044;-55
2023/12/09 08:58:21;;;;;;;12.05;3.13;;;;;;;9.02;98.61;99787.75;8374996;28;20041;-57
2023/12/09 09:02:21;;;;;;;13.50;3.28;;;;;;;9.32;97.67;99795.56;8375603;28;20039;-57
2023/12/09 09:06:22;;;;;;;14.60;3.63;;;;;;;9.82;94.33;99796.78;8370151;28;20131;-56
2023/12/09 09:10:22;;;;;;;10.23;3.33;;;;;;;10.03;93.52;99791.94;8365543;28;20044;-56
2023/12/09 09:14:23;;;;;;;12.60;3.00;;;;;;;10.55;90.51;99788.34;8376777;28;20037;-56
2023/12/09 09:18:24;;;;;;;10.13;2.70;;;;;;;10.35;91.02;99781.47;8358760;28;20427;-54
2023/12/09 09:22:24;;;;;;;11.02;2.42;;;;;;;10.25;91.95;99780.72;8365586;28;20043;-58
2023/12/09 09:26:25;;;;;;;10.52;2.53;;;;;;;10.43;91.70;99775.28;8375995;28;20043;-56
2023/12/09 09:30:25;;;;;;;9.43;2.15;;;;;;;10.63;90.72;99758.69;8366382;28;20043;-57
2023/12/09 09:34:26;;;;;;;6.13;1.67;;;;;;;10.83;90.24;99753.91;8380779;28;20082;-58
2023/12/09 09:38:26;;;;;;;13.43;2.20;;;;;;;11.23;88.79;99741.38;8361116;28;20092;-57
2023/12/09 09:42:36;;;;;;;9.98;2.40;;;;;;;11.56;86.34;99726.94;8373939;28;20040;-58
2023/12/09 09:46:38;;;;;;;12.60;2.25;;;;;;;11.69;86.08;99711.06;8361495;28;20646;-58
2023/12/09 09:50:41;;;;;;;6.50;2.03;;;;;;;11.85;84.95;99708.41;8366464;28;20108;-57
2023/12/09 09:54:43;;;;;;;8.57;2.10;;;;;;;11.74;86.20;99703.31;8367539;28;20139;-57
2023/12/09 09:58:44;;;;;;;11.20;1.85;;;;;;;11.66;86.54;99689.78;8363706;28;20089;-57
2023/12/09 10:02:48;;;;;;;14.05;2.17;;;;;;;11.85;86.62;99675.06;8364113;28;20036;-56
2023/12/09 10:06:49;;;;;;;8.00;1.60;;;;;;;11.97;85.90;99653.88;8354111;28;20032;-57
2023/12/09 10:10:50;;;;;;;12.82;1.92;;;;;;;12.21;85.13;99645.72;8359846;28;20029;-56
2023/12/09 10:14:51;;;;;;;9.13;1.55;;;;;;;12.32;83.94;99629.94;8364102;28;20118;-55
2023/12/09 10:18:52;;;;;;;12.95;2.53;;;;;;;12.44;82.98;99620.41;8372421;28;20490;-57
2023/12/09 10:22:52;;;;;;;14.60;2.42;;;;;;;12.69;81.75;99602.22;8367258;28;20045;-55
2023/12/09 10:26:53;;;;;;;11.10;1.85;;;;;;;12.96;80.62;99582.75;8364616;28;20036;-57
2023/12/09 10:30:53;;;;;;;8.13;1.27;;;;;;;13.14;80.06;99569.75;8363103;28;20545;-57
2023/12/09 10:34:54;;;;;;;14.73;1.90;;;;;;;13.30;79.19;99565.06;8364318;28;20122;-55
2023/12/09 10:38:56;;;;;;;13.35;2.28;;;;;;;13.06;80.63;99558.97;8366615;28;20037;-56
2023/12/09 10:42:57;;;;;;;11.85;1.90;;;;;;;13.04;80.90;99542.00;8368415;28;20062;-61
2023/12/09 10:46:57;;;;;;;10.13;1.60;;;;;;;13.05;80.31;99494.88;8372408;28;20051;-56
2023/12/09 10:50:58;;;;;;;9.07;1.88;;;;;;;13.09;80.99;99523.34;8368817;28;20490;-57
2023/12/09 10:54:58;;;;;;;9.70;1.38;;;;;;;13.00;81.23;99529.84;8367754;28;20423;-58
2023/12/09 10:59:00;;;;;;;12.50;1.30;;;;;;;12.78;82.20;99514.38;8368393;28;20063;-57
2023/12/09 11:03:01;;;;;;;8.25;1.40;;;;;;;12.67;82.85;99517.47;8342464;28;20068;-55
2023/12/09 11:07:04;;;;;;;13.10;1.45;;;;;;;12.56;83.61;99523.31;8387012;28;20056;-55
2023/12/09 11:11:07;;;;;;;9.10;1.65;;;;;;;12.44;84.17;99503.03;8364535;28;20036;-57
2023/12/09 11:19:29;;;;;;;10.25;1.60;;;;;;;12.38;83.47;99446.81;8398564;27;20474;-57
2023/12/09 11:23:30;;;;;;;10.10;1.38;;;;;;;12.32;83.42;99442.13;8372562;27;20040;-54
2023/12/09 11:27:34;;;;;;;9.07;1.58;;;;;;;12.12;84.04;99419.19;8375174;28;20498;-55
2023/12/09 11:31:38;;;;;;;13.07;1.97;;;;;;;12.20;83.90;99394.75;8376843;27;20135;-53
2023/12/09 11:35:40;;;;;;;9.20;1.83;;;;;;;12.15;84.12;99399.88;8375466;28;20033;-54
2023/12/09 11:39:41;;;;;;;9.48;1.30;;;;;;;12.32;83.49;99379.78;8373732;27;20309;-53
2023/12/09 11:43:41;;;;;;;14.38;1.58;;;;;;;12.27;83.45;99358.66;8379136;27;20127;-54
2023/12/09 11:47:42;;;;;;;13.57;1.85;;;;;;;12.35;83.19;99349.63;8382505;27;20056;-55
2023/12/09 11:51:42;;;;;;;8.07;1.33;;;;;;;12.40;83.06;99325.50;8378656;28;20470;-55
2023/12/09 11:55:44;;;;;;;8.80;1.80;;;;;;;12.45;82.72;99313.13;8371871;27;20033;-53
2023/12/09 11:59:44;;;;;;;4.93;1.00;;;;;;;12.40;82.11;99292.97;8358139;27;20060;-54
2023/12/09 12:03:47;;;;;;;7.05;1.00;;;;;;;12.23;82.78;99281.44;8372984;27;20411;-54
2023/12/09 12:07:47;;;;;;;6.40;1.10;;;;;;;12.04;83.50;99264.84;8375346;27;20028;-55
2023/12/09 12:11:49;;;;;;;6.00;1.17;;;;;;;12.09;83.46;99276.81;8374880;27;20076;-54
2023/12/09 12:15:50;;;;;;;3.03;1.20;;;;;;;12.25;82.54;99275.81;8376084;27;20600;-54
2023/12/09 12:19:51;;;;;;;3.95;0.75;;;;;;;12.29;81.90;99258.19;8378199;27;20582;-54
2023/12/09 12:23:52;;;;;;;4.90;0.90;;;;;;;12.21;82.48;99242.84;8357361;27;20469;-55
2023/12/09 12:27:56;;;;;;;4.05;0.80;;;;;;;12.24;81.87;99222.66;8371996;27;20061;-55
2023/12/09 12:31:58;;;;;;;1.63;0.50;;;;;;;12.37;81.08;99201.19;8357906;28;20036;-52
2023/12/09 12:36:00;;;;;;;1.67;0.80;;;;;;;12.07;82.30;99178.63;8358873;28;20489;-54
2023/12/09 12:40:01;;;;;;;2.70;1.20;;;;;;;11.73;84.94;99152.00;8348017;28;20044;-55
2023/12/09 12:44:02;;;;;;;2.85;0.88;;;;;;;11.64;86.14;99131.44;8351204;28;20029;-55
2023/12/09 12:48:04;;;;;;;3.97;0.73;;;;;;;11.44;87.28;99105.81;8356608;28;20040;-54
2023/12/09 12:52:05;;;;;;;4.57;0.50;;;;;;;11.35;87.73;99097.97;8372537;28;20036;-54
2023/12/09 12:56:06;;;;;;;3.03;1.00;;;;;;;11.32;87.73;99072.09;8355064;28;20044;-54
2023/12/09 13:00:07;;;;;;;3.03;0.60;;;;;;;11.25;88.03;99056.75;8357457;28;20064;-55
2023/12/09 13:04:08;;;;;;;3.33;0.70;;;;;;;11.26;87.44;99036.84;8355310;28;20143;-55
2023/12/09 13:08:09;;;;;;;1.73;0.65;;;;;;;11.25;86.45;99022.44;8357547;28;20131;-55
2023/12/09 13:12:09;;;;;;;2.65;0.60;;;;;;;11.27;86.75;99016.88;8355536;28;20032;-55
2023/12/09 13:16:10;;;;;;;3.13;0.70;;;;;;;11.38;86.15;98982.09;8354449;28;20040;-55
2023/12/09 13:20:11;;;;;;;1.75;0.60;;;;;;;11.38;85.48;98960.44;8351742;28;20075;-55
2023/12/09 13:24:12;;;;;;;2.92;0.50;;;;;;;11.36;86.19;98948.97;8348642;28;20041;-55
2023/12/09 13:28:13;;;;;;;0.98;0.40;;;;;;;11.23;87.40;98935.22;8352177;28;20037;-56
2023/12/09 13:32:13;;;;;;;2.25;0.60;;;;;;;11.15;87.64;98908.28;8347839;28;20040;-54
2023/12/09 13:36:15;;;;;;;2.22;0.70;;;;;;;11.16;87.72;98899.13;8357622;28;20132;-55
2023/12/09 13:40:15;;;;;;;2.30;0.60;;;;;;;11.05;88.61;98899.59;8354664;28;20041;-54
2023/12/09 13:44:15;;;;;;;4.45;0.65;;;;;;;10.93;90.05;98855.09;8387523;28;20365;-54
2023/12/09 13:48:16;;;;;;;2.40;0.82;;;;;;;10.84;91.59;98869.69;8357738;28;20495;-56
2023/12/09 13:52:17;;;;;;;5.88;0.80;;;;;;;10.81;92.48;98870.06;8355182;28;20391;-54
2023/12/09 13:56:18;;;;;;;1.58;0.47;;;;;;;10.70;92.99;98839.94;8357159;28;20049;-56
2023/12/09 14:00:19;;;;;;;4.07;0.60;;;;;;;10.61;93.06;98820.22;8355962;28;20668;-57
2023/12/09 14:04:19;;;;;;;2.22;0.88;;;;;;;10.56;92.33;98833.47;8354066;28;20061;-58
2023/12/09 14:08:20;;;;;;;3.53;0.40;;;;;;;10.62;92.72;98821.94;8354367;28;20314;-56
2023/12/09 14:12:20;;;;;;;1.52;0.50;;;;;;;10.53;93.08;98827.56;8355749;28;20041;-57
2023/12/09 14:16:21;;;;;;;3.45;0.50;;;;;;;10.48;93.87;98805.66;8355606;28;20094;-57
2023/12/09 14:20:22;;;;;;;0.60;0.30;;;;;;;10.52;93.94;98780.78;8352550;28;20068;-57
2023/12/09 14:24:22;;;;;;;2.47;0.65;;;;;;;10.41;94.65;98758.78;8350321;28;20083;-57
2023/12/09 14:28:23;;;;;;;0.93;0.40;;;;;;;10.35;95.68;98738.75;8351067;28;20463;-58
2023/12/09 14:32:24;;;;;;;2.10;1.08;;;;;;;10.30;97.03;98735.75;8349015;28;20032;-57
2023/12/09 14:36:24;;;;;;;2.53;0.57;;;;;;;10.06;98.21;98722.41;8349042;28;20123;-58
2023/12/09 14:40:24;;;;;;;0.75;0.45;;;;;;;10.06;97.54;98700.00;8339635;28;20037;-59
2023/12/09 14:44:25;;;;;;;1.00;0.50;;;;;;;9.98;97.04;98703.59;8329631;28;20079;-58
2023/12/09 14:48:25;;;;;;;3.40;0.65;;;;;;;9.96;96.77;98635.47;8345909;28;20049;-58
2023/12/09 14:52:26;;;;;;;1.50;0.50;;;;;;;10.02;95.92;98669.81;8332550;28;20067;-59
2023/12/09 14:56:26;;;;;;;3.78;0.98;;;;;;;10.11;95.60;98639.06;8353607;28;20041;-58
2023/12/09 15:00:27;;;;;;;1.08;0.43;;;;;;;10.11;95.77;98649.88;8350702;28;20044;-60
2023/12/09 15:04:27;;;;;;;1.25;0.50;;;;;;;10.26;95.32;98618.31;8354233;28;20414;-60
2023/12/09 15:08:28;;;;;;;3.03;0.88;;;;;;;10.16;95.95;98606.97;8349813;28;20090;-57
2023/12/09 15:12:29;;;;;;;2.83;1.05;;;;;;;10.23;95.69;98597.09;8363835;28;20056;-57
2023/12/09 15:16:29;;;;;;;3.45;1.42;;;;;;;10.33;94.97;98594.94;8368702;28;20661;-58
2023/12/09 15:20:31;;;;;;;4.05;1.13;;;;;;;10.32;95.05;98574.38;8350443;28;20048;-57
2023/12/09 15:24:31;;;;;;;4.53;1.63;;;;;;;10.41;95.34;98553.50;8331157;28;20122;-57
2023/12/09 15:28:32;;;;;;;4.93;1.38;;;;;;;10.50;94.74;98564.03;8342710;28;20053;-58
2023/12/09 15:32:33;;;;;;;2.42;0.88;;;;;;;10.40;95.05;98551.84;8330961;28;20049;-59
2023/12/09 15:36:33;;;;;;;0.80;0.43;;;;;;;10.55;94.15;98539.97;8347509;28;20056;-59
2023/12/09 15:40:34;;;;;;;1.05;0.57;;;;;;;10.58;93.43;98539.59;8341055;28;20095;-58
2023/12/09 15:44:34;;;;;;;1.10;0.47;;;;;;;10.69;93.49;98525.59;8344606;28;20147;-58
2023/12/09 15:48:35;;;;;;;0.38;0.20;;;;;;;10.67;94.93;98524.94;8345020;28;20459;-58
2023/12/09 15:52:35;;;;;;;0.30;0.30;;;;;;;10.75;95.27;98514.03;8344062;28;20434;-57
2023/12/09 15:56:36;;;;;;;1.42;0.20;;;;;;;10.75;95.32;98503.22;8322447;28;20073;-58
2023/12/09 16:00:36;;;;;;;0.82;0.20;;;;;;;10.88;94.38;98506.06;8290281;28;20064;-59
2023/12/09 16:04:37;;;;;;;0.20;0.20;;;;;;;10.82;94.20;98504.13;8286103;28;20485;-57
2023/12/09 16:08:38;;;;;;;0.30;0.20;;;;;;;10.94;94.57;98497.19;8285619;28;20471;-60
2023/12/09 16:12:39;;;;;;;0.30;0.25;;;;;;;10.84;95.82;98477.75;8296343;28;20047;-59
2023/12/09 16:16:42;;;;;;;0.30;0.30;;;;;;;10.71;96.52;98474.06;8319229;28;20331;-58
2023/12/09 16:20:43;;;;;;;0.63;0.30;;;;;;;10.61;96.80;98466.28;8321950;28;20044;-58
2023/12/09 16:24:45;;;;;;;0.20;0.20;;;;;;;10.79;96.74;98476.63;8311739;28;20048;-60
2023/12/09 16:28:46;;;;;;;0.15;0.15;;;;;;;10.83;95.38;98462.56;8306575;28;20545;-61
2023/12/09 16:32:49;;;;;;;0.20;0.20;;;;;;;10.91;94.76;98448.91;8292876;28;20686;-61
2023/12/09 16:36:49;;;;;;;0.20;0.10;;;;;;;10.93;94.83;98422.53;8282393;28;20088;-61
2023/12/09 16:40:50;;;;;;;0.47;0.17;;;;;;;10.86;95.34;98408.09;8308160;28;20040;-60
2023/12/09 16:44:50;;;;;;;1.02;0.30;;;;;;;10.95;95.34;98404.25;8295656;28;20449;-60
2023/12/09 16:48:52;;;;;;;0.55;0.30;;;;;;;10.90;95.97;98387.78;8290441;28;20026;-60
2023/12/09 16:52:52;;;;;;;0.75;0.32;;;;;;;11.01;95.66;98395.34;8301626;28;20053;-59
2023/12/09 16:56:53;;;;;;;0.90;0.30;;;;;;;10.96;97.06;98427.56;8282493;28;20218;-59
2023/12/09 17:00:53;;;;;;;1.23;0.20;;;;;;;10.98;96.85;98406.56;8342057;28;20288;-60
2023/12/09 17:04:54;;;;;;;1.10;0.40;;;;;;;11.10;97.25;98398.78;8351920;28;20548;-60
2023/12/09 17:08:54;;;;;;;1.17;0.20;;;;;;;10.98;98.24;98411.16;8352578;28;20037;-61
2023/12/09 17:12:55;;;;;;;1.27;0.30;;;;;;;10.88;99.62;98387.13;8349747;28;20041;-61
2023/12/09 17:16:55;;;;;;;0.65;0.40;;;;;;;10.90;100.00;98387.78;8353191;28;20048;-61
2023/12/09 17:20:57;;;;;;;1.35;0.60;;;;;;;10.97;100.00;98388.69;8351117;28;20036;-61
2023/12/09 17:24:58;;;;;;;1.52;0.75;;;;;;;10.97;100.00;98377.88;8349785;28;20411;-61
2023/12/09 17:28:58;;;;;;;0.30;0.20;;;;;;;11.07;99.94;98362.13;8351190;28;20141;-61
2023/12/09 17:32:59;;;;;;;0.25;0.17;;;;;;;11.01;100.00;98368.31;8354499;28;20040;-61
2023/12/09 17:36:59;;;;;;;0.20;0.20;;;;;;;11.11;99.18;98357.19;8351808;28;20034;-61
2023/12/09 17:41:01;;;;;;;0.45;0.20;;;;;;;11.14;98.64;98349.53;8357401;28;20547;-69
2023/12/09 17:45:02;;;;;;;0.30;0.30;;;;;;;11.06;99.73;98349.66;8351648;28;20048;-61
2023/12/09 17:49:03;;;;;;;0.60;0.43;;;;;;;11.05;99.20;98350.69;8354165;28;20799;-61
2023/12/09 17:53:03;;;;;;;0.57;0.50;;;;;;;11.06;99.43;98363.19;8343882;28;20123;-59
2023/12/09 17:57:04;;;;;;;2.08;0.20;;;;;;;11.13;98.63;98355.94;8350566;28;20216;-60
2023/12/09 18:01:05;;;;;;;0.38;0.38;;;;;;;11.09;98.72;98360.06;8349872;28;20041;-60
2023/12/09 18:05:06;;;;;;;0.55;0.40;;;;;;;11.13;99.16;98355.94;8352339;28;20128;-59
2023/12/09 18:09:06;;;;;;;1.00;0.70;;;;;;;11.05;100.00;98364.22;8345530;28;20037;-60
2023/12/09 18:13:07;;;;;;;1.52;1.10;;;;;;;11.28;100.00;98364.78;8350183;28;20514;-57
2023/12/09 18:17:07;;;;;;;0.70;0.43;;;;;;;11.53;98.52;98378.69;8351291;28;20075;-58
2023/12/09 18:21:08;;;;;;;0.98;0.55;;;;;;;11.59;98.97;98384.13;8349047;28;20067;-58
2023/12/09 18:25:08;;;;;;;1.17;0.70;;;;;;;11.66;98.42;98393.19;8349245;28;20028;-58
2023/12/09 18:29:09;;;;;;;1.30;0.90;;;;;;;11.86;97.84;98390.56;8351032;28;20033;-57
2023/12/09 18:33:10;;;;;;;0.82;0.50;;;;;;;11.86;98.46;98375.16;8350141;28;20531;-58
2023/12/09 18:37:11;;;;;;;1.73;1.10;;;;;;;11.93;98.00;98379.78;8350457;28;20040;-58
2023/12/09 18:41:11;;;;;;;1.60;1.15;;;;;;;11.89;98.88;98374.75;8349173;28;20423;-58
2023/12/09 18:45:12;;;;;;;3.10;1.75;;;;;;;12.02;99.50;98381.28;8352424;28;20033;-59
2023/12/09 18:49:12;;;;;;;3.42;2.25;;;;;;;12.01;100.00;98404.78;8346285;28;20040;-61
2023/12/09 18:53:13;;;;;;;3.60;1.98;;;;;;;12.05;100.00;98400.66;8345458;28;20112;-58
2023/12/09 18:57:13;;;;;;;3.08;1.55;;;;;;;12.23;100.00;98398.22;8351849;28;20127;-58